Rockport, Texas
Current Conditions -  °F | °C
As of 9:53 PM on Wednesday 26 Nov 2014 (Local Time) from KRKP Reporting Station
Clear Clear  
Wind Chill: 59°   Ceiling: Unl
Heat Index: 59°   Visibility: 10mi
Dew Point: 53°   Wind: 6mph
Humidity: 81%   Direction: 190°S
Pressure: 30.28"   Gusts: NA
Location:  28.01°N, 97.06°W
Report Text: KRKP 270353Z AUTO 19005KT 10SM CLR 15/12 A3028 RMK AO2 SLP255 T01500117 $
Loading
Personal Weather Stations






























Interactive Weather Map New forecast layout! Learn more

10-Day Weather Forecast

Advertisements
Track Severe Weather on mobile